Time;durP1;ratioP1;P1;durP2;ratioP2;P2;SDS_P1;SDS_P2;PMS_P1;PMS_P2;Temp;Humidity;BMP_temperature;BMP_pressure;BME280_temperature;BME280_humidity;BME280_pressure;Samples;Min_cycle;Max_cycle;Signal;HPM_P1;HPM_P2
2023/10/14 00:02:08;;;;;;;6.35;3.35;;;;;;;17.87;100.00;101443.63;20964291;28;20060;-71
2023/10/14 00:12:32;;;;;;;7.70;3.13;;;;;;;17.82;100.00;101437.44;20962597;28;20056;-71
2023/10/14 00:22:55;;;;;;;6.55;2.97;;;;;;;17.70;100.00;101433.03;20992432;28;20040;-71
2023/10/14 00:33:20;;;;;;;7.25;3.58;;;;;;;17.76;100.00;101427.66;20969055;28;20395;-71
2023/10/14 00:43:43;;;;;;;5.28;2.80;;;;;;;17.66;100.00;101422.31;20968434;28;20060;-71
2023/10/14 00:54:10;;;;;;;6.38;3.40;;;;;;;17.58;100.00;101402.75;20949851;28;20447;-71
2023/10/14 01:04:33;;;;;;;6.65;3.05;;;;;;;17.58;100.00;101390.31;20959701;28;20134;-71
2023/10/14 01:15:00;;;;;;;8.88;3.50;;;;;;;17.50;100.00;101384.97;20964353;28;20408;-71
2023/10/14 01:25:28;;;;;;;7.13;3.63;;;;;;;17.32;100.00;101374.34;20960174;28;20127;-71
2023/10/14 01:35:51;;;;;;;;;;;;;;;17.29;100.00;101370.78;20961297;28;20098;-71
2023/10/14 01:46:18;;;;;;;9.43;3.95;;;;;;;17.22;100.00;101353.00;20940126;28;19926;-71
2023/10/14 01:56:42;;;;;;;9.07;3.78;;;;;;;17.00;100.00;101347.69;20954114;28;20052;-71
2023/10/14 02:07:19;;;;;;;7.85;3.63;;;;;;;17.03;100.00;101346.81;20988765;28;20052;-71
2023/10/14 02:17:42;;;;;;;8.40;3.78;;;;;;;16.94;100.00;101341.47;20998195;28;20492;-71
2023/10/14 02:28:14;;;;;;;7.22;3.78;;;;;;;17.01;100.00;101332.59;20958386;28;20059;-72
2023/10/14 02:38:37;;;;;;;6.47;4.18;;;;;;;16.89;100.00;101336.16;20959315;28;20044;-71
2023/10/14 02:49:06;;;;;;;7.05;3.80;;;;;;;16.93;100.00;101326.41;20954038;28;20136;-71
2023/10/14 02:59:43;;;;;;;7.82;3.83;;;;;;;16.89;100.00;101332.59;20957458;28;20049;-72
2023/10/14 03:10:12;;;;;;;7.32;3.78;;;;;;;16.83;100.00;101327.28;20958325;28;20512;-71
2023/10/14 03:20:39;;;;;;;9.02;5.38;;;;;;;16.76;100.00;101333.50;20958569;28;20044;-71
2023/10/14 03:31:08;;;;;;;8.25;4.35;;;;;;;16.72;100.00;101338.84;20970748;28;20043;-72
2023/10/14 03:41:37;;;;;;;7.30;4.07;;;;;;;16.69;100.00;101328.19;20940346;28;20135;-71
2023/10/14 03:52:01;;;;;;;7.90;3.72;;;;;;;16.61;100.00;101331.72;20959956;28;20412;-71
2023/10/14 04:02:25;;;;;;;8.93;4.35;;;;;;;16.61;100.00;101337.94;21006253;28;20050;-71
2023/10/14 04:12:53;;;;;;;11.02;4.28;;;;;;;16.51;100.00;101320.16;20998941;28;20136;-71
2023/10/14 04:23:29;;;;;;;8.37;4.30;;;;;;;16.48;100.00;101320.13;20969175;28;20051;-71
2023/10/14 04:33:53;;;;;;;7.07;4.38;;;;;;;16.51;100.00;101335.25;20952019;28;20490;-71
2023/10/14 04:44:21;;;;;;;10.60;4.65;;;;;;;16.56;100.00;101330.81;20967447;28;20067;-71
2023/10/14 04:54:54;;;;;;;10.50;4.57;;;;;;;16.61;100.00;101335.28;20966344;28;20048;-71
2023/10/14 05:05:19;;;;;;;5.30;3.15;;;;;;;16.94;100.00;101345.03;20961548;28;20044;-72
2023/10/14 05:15:52;;;;;;;6.20;2.88;;;;;;;17.41;100.00;101355.63;20950481;28;20106;-72
2023/10/14 05:26:15;;;;;;;5.40;3.08;;;;;;;17.64;100.00;101374.28;20964655;28;20508;-72
2023/10/14 05:36:39;;;;;;;5.00;2.80;;;;;;;17.97;100.00;101375.94;20976198;28;20051;-71
2023/10/14 05:47:02;;;;;;;5.72;2.20;;;;;;;18.65;100.00;101388.88;21037415;28;20039;-72
2023/10/14 05:57:27;;;;;;;4.80;2.30;;;;;;;19.39;100.00;101391.81;21005001;28;20123;-71
2023/10/14 06:07:52;;;;;;;4.70;1.60;;;;;;;20.13;100.00;101390.06;20947935;28;20209;-72
2023/10/14 06:18:16;;;;;;;4.22;1.65;;;;;;;20.95;100.00;101383.44;20959092;28;20049;-72
2023/10/14 06:28:40;;;;;;;5.63;2.38;;;;;;;21.65;100.00;101369.63;20946767;28;20625;-71
2023/10/14 06:39:13;;;;;;;5.50;2.53;;;;;;;22.23;100.00;101357.66;20964049;28;20052;-72
2023/10/14 06:49:36;;;;;;;4.53;1.88;;;;;;;22.61;100.00;101356.72;20953776;28;20041;-71
2023/10/14 07:00:03;;;;;;;5.45;1.80;;;;;;;22.32;100.00;101351.19;20938652;28;20060;-71
2023/10/14 07:10:32;;;;;;;3.55;1.70;;;;;;;22.58;100.00;101343.34;20969806;28;20056;-72
2023/10/14 07:21:00;;;;;;;5.95;1.70;;;;;;;23.18;100.00;101348.09;20971744;28;20037;-71
2023/10/14 07:31:23;;;;;;;2.83;1.50;;;;;;;23.47;100.00;101352.69;21003909;28;20044;-71
2023/10/14 07:41:52;;;;;;;4.60;1.90;;;;;;;23.02;100.00;101348.53;21040097;28;20059;-71
2023/10/14 07:52:15;;;;;;;5.32;1.48;;;;;;;24.33;100.00;101355.56;20982862;28;20076;-73
2023/10/14 08:02:40;;;;;;;4.30;1.50;;;;;;;24.93;100.00;101355.41;20969938;28;20087;-72
2023/10/14 08:13:04;;;;;;;4.10;1.30;;;;;;;24.83;100.00;101336.81;20960898;28;20053;-72
2023/10/14 08:23:29;;;;;;;5.93;1.67;;;;;;;24.67;100.00;101336.44;20966776;28;20047;-72
2023/10/14 08:33:51;;;;;;;4.20;1.40;;;;;;;25.42;100.00;101324.78;20974318;28;20059;-72
2023/10/14 08:44:21;;;;;;;3.78;1.33;;;;;;;25.94;100.00;101325.53;20962773;28;20048;-73
2023/10/14 08:54:45;;;;;;;5.80;1.58;;;;;;;25.40;100.00;101318.53;20958704;28;20037;-73
2023/10/14 09:05:16;;;;;;;6.25;1.38;;;;;;;25.95;100.00;101310.19;20989372;28;20052;-73
2023/10/14 09:15:42;;;;;;;4.20;2.22;;;;;;;25.88;100.00;101305.97;20902466;28;20052;-73
2023/10/14 09:26:06;;;;;;;3.77;1.30;;;;;;;26.35;100.00;101287.84;20936427;28;20071;-72
2023/10/14 09:36:29;;;;;;;3.03;1.08;;;;;;;26.93;100.00;101276.31;20953823;28;20052;-72
2023/10/14 09:46:55;;;;;;;6.85;1.65;;;;;;;26.97;92.80;101268.97;20978977;28;20056;-72
2023/10/14 09:57:19;;;;;;;5.45;1.60;;;;;;;27.18;92.32;101261.66;20955677;28;20056;-71
2023/10/14 10:07:55;;;;;;;3.78;1.42;;;;;;;27.41;89.16;101255.22;20945931;28;20040;-72
2023/10/14 10:18:17;;;;;;;;;;;;;;;27.02;87.14;101247.06;20929078;28;20059;-72
2023/10/14 10:28:45;;;;;;;5.32;1.50;;;;;;;27.32;84.98;101240.22;20933639;28;20726;-72
2023/10/14 10:39:17;;;;;;;4.35;1.92;;;;;;;27.45;86.55;101232.41;20936220;28;20044;-72
2023/10/14 10:50:04;;;;;;;4.97;1.95;;;;;;;27.26;86.04;101214.28;20941627;28;20128;-71
2023/10/14 11:00:30;;;;;;;4.55;1.13;;;;;;;26.89;87.96;101214.22;20952462;28;20048;-73
2023/10/14 11:10:56;;;;;;;4.25;1.73;;;;;;;26.64;88.19;101192.72;20956922;28;20397;-73
2023/10/14 11:21:19;;;;;;;3.00;1.37;;;;;;;26.10;94.82;101182.38;20944964;28;20045;-72
2023/10/14 11:31:45;;;;;;;4.07;1.58;;;;;;;25.77;97.04;101177.41;20898540;28;20399;-71
2023/10/14 11:42:08;;;;;;;6.93;2.10;;;;;;;25.75;96.94;101164.88;20905194;28;20055;-71
2023/10/14 11:52:32;;;;;;;3.63;1.52;;;;;;;25.72;96.37;101163.22;20958139;28;20048;-71
2023/10/14 12:02:55;;;;;;;5.50;1.85;;;;;;;25.47;97.79;101166.91;20948805;28;20507;-71
2023/10/14 12:13:19;;;;;;;3.95;1.77;;;;;;;25.09;100.00;101171.09;20946746;28;20061;-71
2023/10/14 12:23:45;;;;;;;5.40;1.88;;;;;;;25.14;100.00;101161.00;20956914;28;20136;-71
2023/10/14 12:34:09;;;;;;;5.85;1.70;;;;;;;25.06;100.00;101149.59;20916456;28;20041;-71
2023/10/14 12:44:35;;;;;;;3.63;1.65;;;;;;;25.12;100.00;101152.06;20958549;28;20171;-71
2023/10/14 12:55:08;;;;;;;4.40;1.60;;;;;;;25.13;100.00;101141.19;20937580;28;20055;-71
2023/10/14 13:05:33;;;;;;;5.00;1.67;;;;;;;25.07;100.00;101138.75;20972185;28;20411;-71
2023/10/14 13:15:57;;;;;;;3.55;1.45;;;;;;;24.82;100.00;101144.13;20973081;28;20181;-71
2023/10/14 13:26:20;;;;;;;6.03;1.65;;;;;;;24.75;100.00;101139.00;20975082;28;20048;-71
2023/10/14 13:36:44;;;;;;;5.78;1.98;;;;;;;24.77;100.00;101137.13;20975712;28;20048;-71
2023/10/14 13:47:07;;;;;;;6.30;1.70;;;;;;;24.63;100.00;101124.13;20954317;28;20253;-71
2023/10/14 13:57:32;;;;;;;3.75;1.50;;;;;;;24.51;100.00;101127.28;20962285;28;20052;-71
2023/10/14 14:07:55;;;;;;;4.57;1.80;;;;;;;24.30;100.00;101128.94;20938608;28;20040;-71
2023/10/14 14:18:20;;;;;;;4.50;2.03;;;;;;;23.95;100.00;101129.25;20922640;28;20128;-71
2023/10/14 14:28:43;;;;;;;7.97;2.20;;;;;;;23.83;100.00;101128.69;20926141;28;20041;-70
2023/10/14 14:39:08;;;;;;;6.80;2.45;;;;;;;23.69;100.00;101131.00;20962125;28;20048;-72
2023/10/14 14:49:30;;;;;;;5.15;2.33;;;;;;;23.68;100.00;101142.72;21032903;28;20048;-71
2023/10/14 14:59:55;;;;;;;9.63;3.63;;;;;;;23.58;100.00;101140.34;20958493;28;20144;-71
2023/10/14 15:10:20;;;;;;;6.72;2.17;;;;;;;23.39;100.00;101140.91;20886931;28;20053;-71
2023/10/14 15:20:45;;;;;;;6.22;2.38;;;;;;;23.10;100.00;101129.25;20926112;28;20060;-71
2023/10/14 15:31:08;;;;;;;8.85;6.15;;;;;;;22.88;100.00;101124.50;20963926;28;20072;-71
2023/10/14 15:41:33;;;;;;;8.60;4.47;;;;;;;22.61;100.00;101117.19;20978665;28;20056;-71
2023/10/14 15:51:58;;;;;;;5.05;2.83;;;;;;;22.36;100.00;101121.47;20977656;28;20044;-70
2023/10/14 16:02:22;;;;;;;5.43;2.20;;;;;;;22.12;100.00;101128.41;20959246;28;20046;-71
2023/10/14 16:12:45;;;;;;;9.18;2.92;;;;;;;21.77;100.00;101124.75;20969336;28;20147;-71
2023/10/14 16:23:09;;;;;;;9.15;2.95;;;;;;;21.57;100.00;101120.78;20970054;28;20041;-71
2023/10/14 16:33:32;;;;;;;5.25;2.28;;;;;;;21.34;100.00;101122.19;20983439;28;20467;-71
2023/10/14 16:43:57;;;;;;;6.50;2.75;;;;;;;21.17;100.00;101128.88;20987489;28;20054;-71
2023/10/14 16:54:20;;;;;;;6.55;2.25;;;;;;;20.99;100.00;101146.25;20997610;28;20049;-71
2023/10/14 17:04:44;;;;;;;5.40;2.45;;;;;;;20.84;100.00;101146.53;20943344;28;20055;-71
2023/10/14 17:15:09;;;;;;;7.13;2.50;;;;;;;20.72;100.00;101149.47;20967062;28;20063;-71
2023/10/14 17:25:34;;;;;;;8.30;2.85;;;;;;;20.60;100.00;101154.19;20955835;28;20055;-71
2023/10/14 17:35:57;;;;;;;4.35;2.17;;;;;;;20.49;100.00;101161.53;20940244;28;20136;-71
2023/10/14 17:46:23;;;;;;;3.75;2.22;;;;;;;20.34;100.00;101167.19;20961167;28;20064;-71
2023/10/14 17:56:47;;;;;;;4.25;2.03;;;;;;;20.18;100.00;101176.38;20979085;28;20062;-71
2023/10/14 18:07:13;;;;;;;3.75;2.10;;;;;;;20.03;100.00;101174.81;20941151;28;20068;-71
2023/10/14 18:17:35;;;;;;;5.38;2.40;;;;;;;19.96;100.00;101177.63;20963180;28;20094;-71
2023/10/14 18:28:01;;;;;;;4.70;2.90;;;;;;;19.89;100.00;101184.88;20944374;28;20065;-70
2023/10/14 18:38:25;;;;;;;5.90;2.63;;;;;;;19.77;100.00;101198.47;20948415;28;20048;-69
2023/10/14 18:48:52;;;;;;;5.75;2.67;;;;;;;19.66;100.00;101200.44;20945635;28;21016;-70
2023/10/14 18:59:15;;;;;;;5.40;2.85;;;;;;;19.50;100.00;101199.75;20966376;28;20060;-70
2023/10/14 19:09:39;;;;;;;5.05;2.60;;;;;;;19.43;100.00;101203.38;20965178;28;20048;-70
2023/10/14 19:20:08;;;;;;;4.88;3.03;;;;;;;19.36;100.00;101209.75;20972976;28;20055;-71
2023/10/14 19:30:35;;;;;;;4.72;2.40;;;;;;;19.22;100.00;101209.06;20992310;28;20044;-70
2023/10/14 19:41:03;;;;;;;5.85;2.50;;;;;;;19.10;100.00;101207.38;20927198;28;20086;-70
2023/10/14 19:51:29;;;;;;;5.45;2.70;;;;;;;19.03;100.00;101214.59;20991992;28;20048;-70
2023/10/14 20:01:51;;;;;;;5.15;2.58;;;;;;;18.94;100.00;101195.13;21028647;28;20121;-71
2023/10/14 20:12:15;;;;;;;5.82;2.17;;;;;;;18.81;100.00;101204.19;21018455;28;20563;-70
2023/10/14 20:22:38;;;;;;;4.90;2.80;;;;;;;18.76;100.00;101195.34;20970823;28;20089;-70
2023/10/14 20:33:05;;;;;;;5.95;2.60;;;;;;;18.59;100.00;101183.00;21006590;28;20403;-70
2023/10/14 20:43:28;;;;;;;4.18;2.50;;;;;;;18.45;100.00;101176.00;20951225;28;20110;-70
2023/10/14 20:53:53;;;;;;;7.72;2.58;;;;;;;18.39;100.00;101174.28;20911916;28;20040;-70
2023/10/14 21:04:15;;;;;;;5.13;2.80;;;;;;;18.17;100.00;101151.34;20963059;28;20053;-70
2023/10/14 21:14:39;;;;;;;7.43;2.67;;;;;;;18.04;100.00;101155.91;20922544;28;20055;-70
2023/10/14 21:25:02;;;;;;;6.28;2.97;;;;;;;17.99;100.00;101147.03;20972092;28;20072;-70
2023/10/14 21:35:26;;;;;;;4.28;2.30;;;;;;;17.78;100.00;101145.44;20967154;28;20139;-70
2023/10/14 21:45:49;;;;;;;5.80;2.75;;;;;;;17.47;100.00;101131.38;21013259;28;20109;-70
2023/10/14 21:56:14;;;;;;;4.20;2.35;;;;;;;17.52;100.00;101129.53;21038240;28;20053;-70
2023/10/14 22:06:37;;;;;;;5.43;2.65;;;;;;;17.12;100.00;101118.25;20997586;28;20488;-70
2023/10/14 22:17:01;;;;;;;5.57;2.22;;;;;;;16.89;100.00;101112.13;20981328;28;20055;-70
2023/10/14 22:27:25;;;;;;;7.53;2.85;;;;;;;17.23;100.00;101118.19;20950474;28;20044;-70
2023/10/14 22:37:52;;;;;;;4.85;2.30;;;;;;;17.08;100.00;101111.16;21031496;28;20052;-70
2023/10/14 22:48:14;;;;;;;4.45;2.20;;;;;;;17.13;100.00;101109.34;20967812;28;20083;-70
2023/10/14 22:58:39;;;;;;;5.28;2.33;;;;;;;17.28;100.00;101102.13;21012313;28;20167;-70
2023/10/14 23:09:03;;;;;;;4.18;2.25;;;;;;;16.68;100.00;101110.44;20959631;28;20048;-70
2023/10/14 23:19:27;;;;;;;5.30;2.97;;;;;;;16.74;100.00;101091.75;20956589;28;20727;-70
2023/10/14 23:29:51;;;;;;;6.60;2.28;;;;;;;16.43;100.00;101083.84;20924083;28;20076;-70
2023/10/14 23:40:17;;;;;;;4.05;2.35;;;;;;;16.55;100.00;101087.34;20954406;28;20388;-70
2023/10/14 23:50:40;;;;;;;5.80;3.13;;;;;;;16.34;100.00;101071.47;20983896;28;20139;-70
